GMMC/CAS METAR and TAF weather

Enter ICAO airport designator
Station Type Date Time Source
GMMC METAR 2019/02/19 20:00 UTC NOAA

GMMC 192000Z 06006KT CAVOK 14/08 Q1018


Station Type Date Time Source
GMMC Decoded METAR 2019/02/19 20:00 UTC NOAA

Casablanca, Morocco (GMMC) 33-34N 007-40W 62M
Feb 19, 2019 - 03:00 PM EST / 2019.02.19 2000 UTC
Wind: from the ENE (060 degrees) at 7 MPH (6 KT):0
Visibility: greater than 7 mile(s):0
Temperature: 57 F (14 C)
Dew Point: 46 F (8 C)
Relative Humidity: 67%
Pressure (altimeter): 30.06 in. Hg (1018 hPa)
ob: GMMC 192000Z 06006KT CAVOK 14/08 Q1018
cycle: 20

Station Type Date Time Source
GMMC TAF 2016/05/22 17:00 UTC NOAA

FTMC31 GMMC 221700 RRA TAF LPPT 221700Z 2218/2324 34013KT CAVOK
BECMG 2221/2224 34007KT
BECMG 2310/2312 VRB03KT


Example: see airport list